Time;durP1;ratioP1;P1;durP2;ratioP2;P2;SDS_P1;SDS_P2;PMS_P1;PMS_P2;Temp;Humidity;BMP_temperature;BMP_pressure;BME280_temperature;BME280_humidity;BME280_pressure;Samples;Min_cycle;Max_cycle;Signal;HPM_P1;HPM_P2
2021/09/26 00:00:48;;;;;;;10.20;5.80;;;;;;;;;;5091624;28;20047;-76
2021/09/26 00:03:13;;;;;;;12.32;5.38;;;;;;;;;;5092363;28;20031;-76
2021/09/26 00:05:39;;;;;;;7.78;5.28;;;;;;;;;;5094887;28;20056;-76
2021/09/26 00:08:04;;;;;;;9.90;4.47;;;;;;;;;;5095669;28;20044;-76
2021/09/26 00:10:30;;;;;;;24.42;5.47;;;;;;;;;;5094599;28;20043;-76
2021/09/26 00:12:56;;;;;;;8.27;5.20;;;;;;;;;;5096011;28;20035;-76
2021/09/26 00:15:22;;;;;;;10.48;4.80;;;;;;;;;;5094405;28;20053;-77
2021/09/26 00:17:49;;;;;;;11.57;5.65;;;;;;;;;;5095865;28;20094;-77
2021/09/26 00:20:16;;;;;;;12.38;5.18;;;;;;;;;;5095761;28;20032;-76
2021/09/26 00:22:42;;;;;;;14.10;5.20;;;;;;;;;;5095318;28;20031;-76
2021/09/26 00:25:08;;;;;;;12.57;5.10;;;;;;;;;;5095189;28;20032;-77
2021/09/26 00:27:34;;;;;;;12.48;5.95;;;;;;;;;;5094551;28;20517;-76
2021/09/26 00:29:59;;;;;;;41.28;5.93;;;;;;;;;;5095326;28;20063;-76
2021/09/26 00:32:24;;;;;;;7.45;5.10;;;;;;;;;;5095436;28;20047;-76
2021/09/26 00:34:50;;;;;;;9.90;4.90;;;;;;;;;;5095629;28;20036;-76
2021/09/26 00:37:16;;;;;;;13.40;5.22;;;;;;;;;;5094178;28;20034;-77
2021/09/26 00:39:41;;;;;;;17.90;4.93;;;;;;;;;;5095358;28;20040;-76
2021/09/26 00:42:07;;;;;;;11.25;5.05;;;;;;;;;;5095358;28;20199;-76
2021/09/26 00:44:32;;;;;;;8.93;4.57;;;;;;;;;;5095642;28;20052;-76
2021/09/26 00:46:58;;;;;;;11.80;5.07;;;;;;;;;;5094682;28;20036;-76
2021/09/26 00:49:24;;;;;;;16.02;5.25;;;;;;;;;;5095231;28;20028;-76
2021/09/26 00:51:50;;;;;;;10.32;5.68;;;;;;;;;;5095239;28;20097;-76
2021/09/26 00:54:16;;;;;;;20.13;5.28;;;;;;;;;;5095074;28;20500;-76
2021/09/26 00:56:45;;;;;;;22.10;5.63;;;;;;;;;;5095086;28;20036;-76
2021/09/26 00:59:10;;;;;;;16.60;5.30;;;;;;;;;;5095116;28;20051;-76
2021/09/26 01:01:36;;;;;;;7.03;5.35;;;;;;;;;;5094504;28;20506;-76
2021/09/26 01:04:02;;;;;;;6.72;5.53;;;;;;;;;;5095130;28;20501;-76
2021/09/26 01:06:27;;;;;;;11.02;6.28;;;;;;;;;;5094982;28;20040;-76
2021/09/26 01:09:04;;;;;;;8.95;5.57;;;;;;;;;;5093290;28;20127;-77
2021/09/26 01:11:42;;;;;;;16.65;5.65;;;;;;;;;;5092686;28;20040;-76
2021/09/26 01:14:22;;;;;;;15.73;6.15;;;;;;;;;;5094582;28;20035;-76
2021/09/26 01:17:08;;;;;;;11.02;5.93;;;;;;;;;;5094524;28;20039;-76
2021/09/26 01:20:03;;;;;;;26.30;6.35;;;;;;;;;;5093561;28;20463;-76
2021/09/26 01:23:01;;;;;;;40.30;6.45;;;;;;;;;;5093446;28;20498;-76
2021/09/26 01:26:00;;;;;;;35.97;6.55;;;;;;;;;;5093852;28;20176;-76
2021/09/26 01:29:03;;;;;;;60.22;6.18;;;;;;;;;;5094224;28;20028;-76
2021/09/26 01:31:34;;;;;;;36.95;5.88;;;;;;;;;;5094058;28;20495;-76
2021/09/26 01:34:14;;;;;;;41.70;6.57;;;;;;;;;;5094339;28;20035;-77
2021/09/26 01:36:39;;;;;;;16.95;5.68;;;;;;;;;;5094228;28;20036;-76
2021/09/26 01:39:12;;;;;;;9.98;5.53;;;;;;;;;;5093998;28;20111;-76
2021/09/26 01:41:45;;;;;;;9.85;5.65;;;;;;;;;;5094355;28;20047;-76
2021/09/26 01:44:36;;;;;;;7.28;6.22;;;;;;;;;;5093776;28;20130;-77
2021/09/26 01:47:05;;;;;;;18.10;6.00;;;;;;;;;;5093837;28;20058;-77
2021/09/26 01:49:38;;;;;;;7.22;5.28;;;;;;;;;;5094006;28;20028;-77
2021/09/26 01:52:04;;;;;;;8.50;5.80;;;;;;;;;;5094136;28;20035;-76
2021/09/26 01:54:30;;;;;;;16.05;6.22;;;;;;;;;;5093500;28;20047;-77
2021/09/26 01:56:57;;;;;;;16.92;6.05;;;;;;;;;;5093736;28;20085;-77
2021/09/26 01:59:24;;;;;;;7.82;6.25;;;;;;;;;;5094009;28;20065;-76
2021/09/26 02:01:50;;;;;;;23.33;6.05;;;;;;;;;;5093823;28;20040;-77
2021/09/26 02:04:19;;;;;;;11.18;6.05;;;;;;;;;;5093731;28;20545;-77
2021/09/26 02:06:45;;;;;;;19.85;6.18;;;;;;;;;;5093332;28;20039;-77
2021/09/26 02:09:12;;;;;;;12.50;6.65;;;;;;;;;;5092208;28;20142;-77
2021/09/26 02:11:39;;;;;;;14.52;6.35;;;;;;;;;;5075609;28;20032;-77
2021/09/26 02:14:06;;;;;;;11.63;6.32;;;;;;;;;;5093621;28;20486;-76
2021/09/26 02:16:34;;;;;;;40.03;6.85;;;;;;;;;;5093340;28;20078;-76
2021/09/26 02:19:01;;;;;;;13.43;5.93;;;;;;;;;;5092364;28;20044;-77
2021/09/26 02:21:29;;;;;;;10.13;5.78;;;;;;;;;;5092328;28;20043;-77
2021/09/26 02:23:55;;;;;;;13.55;5.63;;;;;;;;;;5093332;28;20074;-77
2021/09/26 02:26:21;;;;;;;16.13;5.80;;;;;;;;;;5093358;28;20036;-76
2021/09/26 02:28:47;;;;;;;41.15;6.88;;;;;;;;;;5092773;28;20035;-77
2021/09/26 02:31:13;;;;;;;11.32;5.75;;;;;;;;;;5092901;28;20066;-76
2021/09/26 02:33:44;;;;;;;16.35;4.88;;;;;;;;;;5092723;28;20032;-77
2021/09/26 02:36:10;;;;;;;12.98;5.38;;;;;;;;;;5093215;28;20047;-77
2021/09/26 02:38:36;;;;;;;18.42;5.57;;;;;;;;;;5093298;28;20508;-77
2021/09/26 02:41:13;;;;;;;16.50;5.88;;;;;;;;;;5093345;28;20036;-76
2021/09/26 02:43:53;;;;;;;6.75;6.05;;;;;;;;;;5093090;28;20042;-77
2021/09/26 02:46:31;;;;;;;15.60;5.80;;;;;;;;;;5091571;28;20032;-76
2021/09/26 02:48:57;;;;;;;10.20;5.30;;;;;;;;;;5092945;28;20486;-77
2021/09/26 02:51:23;;;;;;;15.48;5.85;;;;;;;;;;5093261;28;20040;-76
2021/09/26 02:53:51;;;;;;;6.97;5.75;;;;;;;;;;5093140;28;20088;-77
2021/09/26 02:56:18;;;;;;;8.45;5.60;;;;;;;;;;5093140;28;20109;-77
2021/09/26 02:58:43;;;;;;;12.70;6.03;;;;;;;;;;5092517;28;20467;-76
2021/09/26 03:01:09;;;;;;;11.85;6.55;;;;;;;;;;5092583;28;20040;-77
2021/09/26 03:03:35;;;;;;;22.33;6.43;;;;;;;;;;5092963;28;20032;-77
2021/09/26 03:06:00;;;;;;;7.03;6.00;;;;;;;;;;5093053;28;20043;-77
2021/09/26 03:08:25;;;;;;;10.65;6.13;;;;;;;;;;5092351;28;20044;-77
2021/09/26 03:10:57;;;;;;;8.93;6.30;;;;;;;;;;5092939;28;20039;-77
2021/09/26 03:13:24;;;;;;;12.05;5.40;;;;;;;;;;5092729;28;20075;-77
2021/09/26 03:15:50;;;;;;;7.68;6.18;;;;;;;;;;5092452;28;20123;-77
2021/09/26 03:18:15;;;;;;;54.35;6.32;;;;;;;;;;5092688;28;20123;-77
2021/09/26 03:20:41;;;;;;;32.15;6.47;;;;;;;;;;5092765;28;20115;-76
2021/09/26 03:23:07;;;;;;;10.60;6.70;;;;;;;;;;5093158;28;20123;-77
2021/09/26 03:25:40;;;;;;;10.52;5.85;;;;;;;;;;5093402;28;20036;-76
2021/09/26 03:28:06;;;;;;;30.92;6.35;;;;;;;;;;5092536;28;20036;-76
2021/09/26 03:30:32;;;;;;;56.60;6.35;;;;;;;;;;5092579;28;20042;-76
2021/09/26 03:32:57;;;;;;;10.32;6.47;;;;;;;;;;5092446;28;20111;-76
2021/09/26 03:35:23;;;;;;;8.55;6.05;;;;;;;;;;5092906;28;20062;-77
2021/09/26 03:37:49;;;;;;;13.77;7.03;;;;;;;;;;5092665;28;20028;-77
2021/09/26 03:40:15;;;;;;;18.30;6.95;;;;;;;;;;5094618;28;20036;-76
2021/09/26 03:42:41;;;;;;;14.73;6.60;;;;;;;;;;5096648;28;20123;-77
2021/09/26 03:45:08;;;;;;;12.85;6.28;;;;;;;;;;5096604;28;20032;-77
2021/09/26 03:47:33;;;;;;;46.03;7.30;;;;;;;;;;5096102;28;20059;-76
2021/09/26 03:49:58;;;;;;;8.10;6.43;;;;;;;;;;5095294;28;20078;-76
2021/09/26 03:52:24;;;;;;;10.77;6.68;;;;;;;;;;5095908;28;20410;-76
2021/09/26 03:54:51;;;;;;;12.63;6.57;;;;;;;;;;5096430;28;20088;-76
2021/09/26 03:57:17;;;;;;;11.52;7.15;;;;;;;;;;5095898;28;20036;-77
2021/09/26 03:59:43;;;;;;;8.60;6.90;;;;;;;;;;5096192;28;20067;-77
2021/09/26 04:02:09;;;;;;;8.50;7.40;;;;;;;;;;5095768;28;20055;-76
2021/09/26 04:04:35;;;;;;;10.25;6.95;;;;;;;;;;5096235;28;20032;-77
2021/09/26 04:07:01;;;;;;;11.07;7.70;;;;;;;;;;5095732;28;20048;-76
2021/09/26 04:09:26;;;;;;;9.70;7.03;;;;;;;;;;5096406;28;20040;-76
2021/09/26 04:11:51;;;;;;;11.98;7.32;;;;;;;;;;5095900;28;20036;-77
2021/09/26 04:14:17;;;;;;;13.68;7.28;;;;;;;;;;5096423;28;20085;-77
2021/09/26 04:16:42;;;;;;;10.40;7.10;;;;;;;;;;5096389;28;20036;-77
2021/09/26 04:19:08;;;;;;;8.77;6.82;;;;;;;;;;5095775;28;20020;-77
2021/09/26 04:21:33;;;;;;;10.20;7.07;;;;;;;;;;5095754;28;20431;-77
2021/09/26 04:23:58;;;;;;;12.02;6.85;;;;;;;;;;5095989;28;20093;-77
2021/09/26 04:26:24;;;;;;;14.68;7.82;;;;;;;;;;5095592;28;20039;-77
2021/09/26 04:28:49;;;;;;;13.35;7.95;;;;;;;;;;5095590;28;20048;-77
2021/09/26 04:31:15;;;;;;;8.63;7.55;;;;;;;;;;5095354;28;20036;-78
2021/09/26 04:33:41;;;;;;;10.95;8.10;;;;;;;;;;5099022;28;20877;-77
2021/09/26 04:36:06;;;;;;;11.25;7.88;;;;;;;;;;5099220;28;20441;-79
2021/09/26 04:38:31;;;;;;;15.43;6.95;;;;;;;;;;5097773;28;20368;-76
2021/09/26 04:40:58;;;;;;;12.43;7.25;;;;;;;;;;5095575;28;20039;-77
2021/09/26 04:43:24;;;;;;;10.32;7.40;;;;;;;;;;5095459;28;20036;-77
2021/09/26 04:45:49;;;;;;;7.72;6.30;;;;;;;;;;5095352;28;20471;-76
2021/09/26 04:48:14;;;;;;;9.35;5.53;;;;;;;;;;5093689;28;20055;-76
2021/09/26 04:50:41;;;;;;;8.77;6.18;;;;;;;;;;5094920;28;20130;-76
2021/09/26 04:53:06;;;;;;;6.97;5.72;;;;;;;;;;5095196;28;20032;-76
2021/09/26 04:55:32;;;;;;;11.93;6.05;;;;;;;;;;5095343;28;20040;-76
2021/09/26 04:57:57;;;;;;;7.13;5.63;;;;;;;;;;5093335;28;20028;-77
2021/09/26 05:00:23;;;;;;;7.03;5.30;;;;;;;;;;5093665;28;20176;-77
2021/09/26 05:02:49;;;;;;;12.10;7.45;;;;;;;;;;5094578;28;20047;-76
2021/09/26 05:05:15;;;;;;;9.90;7.28;;;;;;;;;;5094943;28;20081;-79
2021/09/26 05:07:41;;;;;;;8.65;6.85;;;;;;;;;;5095489;28;20044;-75
2021/09/26 05:10:08;;;;;;;11.73;7.93;;;;;;;;;;5095060;28;20039;-77
2021/09/26 05:12:33;;;;;;;16.92;8.25;;;;;;;;;;5095325;28;20050;-78
2021/09/26 05:15:04;;;;;;;10.75;8.13;;;;;;;;;;5094509;28;20713;-76
2021/09/26 05:17:32;;;;;;;9.63;8.20;;;;;;;;;;5093201;28;20032;-76
2021/09/26 05:19:59;;;;;;;10.90;8.48;;;;;;;;;;5094599;28;20046;-76
2021/09/26 05:22:25;;;;;;;13.63;8.10;;;;;;;;;;5093352;28;20513;-77
2021/09/26 05:24:50;;;;;;;13.23;7.97;;;;;;;;;;5094568;28;20069;-76
2021/09/26 05:27:16;;;;;;;12.38;8.05;;;;;;;;;;5094159;28;20067;-76
2021/09/26 05:29:41;;;;;;;10.80;8.35;;;;;;;;;;5094201;28;20515;-76
2021/09/26 05:32:08;;;;;;;12.63;8.45;;;;;;;;;;5093435;28;20039;-76
2021/09/26 05:34:33;;;;;;;11.10;7.75;;;;;;;;;;5094436;28;20043;-76
2021/09/26 05:36:59;;;;;;;12.20;6.97;;;;;;;;;;5093923;28;20034;-76
2021/09/26 05:39:25;;;;;;;12.65;7.53;;;;;;;;;;5094372;28;20071;-76
2021/09/26 05:41:52;;;;;;;9.88;7.20;;;;;;;;;;5094351;28;20493;-76
2021/09/26 05:44:18;;;;;;;12.57;7.35;;;;;;;;;;5094141;28;20123;-76
2021/09/26 05:46:43;;;;;;;9.98;7.68;;;;;;;;;;5093931;28;20122;-76
2021/09/26 05:49:09;;;;;;;9.88;7.05;;;;;;;;;;5091919;28;20032;-76
2021/09/26 05:51:35;;;;;;;10.07;7.07;;;;;;;;;;5091250;28;20127;-76
2021/09/26 05:54:01;;;;;;;11.68;7.18;;;;;;;;;;5093285;28;20161;-76
2021/09/26 05:56:26;;;;;;;8.00;6.72;;;;;;;;;;5094071;28;20028;-76
2021/09/26 05:58:52;;;;;;;11.75;6.80;;;;;;;;;;5092905;28;20036;-76
2021/09/26 06:01:17;;;;;;;9.13;6.68;;;;;;;;;;5093823;28;20035;-76
2021/09/26 06:03:43;;;;;;;11.32;7.00;;;;;;;;;;5093233;28;20540;-76
2021/09/26 06:06:09;;;;;;;11.73;6.63;;;;;;;;;;5092835;28;20060;-76
2021/09/26 06:08:34;;;;;;;8.43;7.00;;;;;;;;;;5091942;28;20047;-76
2021/09/26 06:11:00;;;;;;;8.23;6.75;;;;;;;;;;5093614;28;20032;-76
2021/09/26 06:13:25;;;;;;;9.43;6.97;;;;;;;;;;5093631;28;20024;-76
2021/09/26 06:15:51;;;;;;;12.40;7.47;;;;;;;;;;5093311;28;20135;-76
2021/09/26 06:18:18;;;;;;;11.48;7.80;;;;;;;;;;5093699;28;20398;-76
2021/09/26 06:20:45;;;;;;;12.55;8.50;;;;;;;;;;5093620;28;20122;-76
2021/09/26 06:23:10;;;;;;;11.38;7.80;;;;;;;;;;5092349;28;20047;-76
2021/09/26 06:25:35;;;;;;;10.15;7.45;;;;;;;;;;5093283;28;20032;-76
2021/09/26 06:28:01;;;;;;;9.10;7.38;;;;;;;;;;5091869;28;20039;-76
2021/09/26 06:30:26;;;;;;;8.20;6.97;;;;;;;;;;5093202;28;20506;-76
2021/09/26 06:32:52;;;;;;;15.07;7.78;;;;;;;;;;5092732;28;20043;-76
2021/09/26 06:35:17;;;;;;;9.77;7.45;;;;;;;;;;5093601;28;20040;-76
2021/09/26 06:37:43;;;;;;;15.15;8.18;;;;;;;;;;5091844;28;20028;-77
2021/09/26 06:40:09;;;;;;;10.10;7.97;;;;;;;;;;5093004;28;20027;-76
2021/09/26 06:42:35;;;;;;;12.15;9.20;;;;;;;;;;5093166;28;20075;-76
2021/09/26 06:45:00;;;;;;;9.85;7.90;;;;;;;;;;5093095;28;20063;-76
2021/09/26 06:47:26;;;;;;;14.88;7.32;;;;;;;;;;5092670;28;20036;-76
2021/09/26 06:49:52;;;;;;;11.07;7.55;;;;;;;;;;5091737;28;20047;-76
2021/09/26 06:52:18;;;;;;;11.77;7.53;;;;;;;;;;5093280;28;20036;-76
2021/09/26 06:54:43;;;;;;;14.68;8.85;;;;;;;;;;5093036;28;20051;-76
2021/09/26 06:57:10;;;;;;;14.07;9.70;;;;;;;;;;5092930;28;20035;-76
2021/09/26 06:59:37;;;;;;;9.27;7.75;;;;;;;;;;5091826;28;20027;-76
2021/09/26 07:02:02;;;;;;;17.08;8.05;;;;;;;;;;5092794;28;20093;-76
2021/09/26 07:04:28;;;;;;;9.70;7.53;;;;;;;;;;5092835;28;20449;-76
2021/09/26 07:06:54;;;;;;;11.90;8.50;;;;;;;;;;5092639;28;20060;-76
2021/09/26 07:09:19;;;;;;;12.68;8.00;;;;;;;;;;5092468;28;20032;-76
2021/09/26 07:11:45;;;;;;;9.80;7.18;;;;;;;;;;5092704;28;20486;-76
2021/09/26 07:14:11;;;;;;;13.05;7.85;;;;;;;;;;5094378;28;20379;-76
2021/09/26 07:16:36;;;;;;;8.77;6.65;;;;;;;;;;5095945;28;20067;-76
2021/09/26 07:19:02;;;;;;;12.68;7.13;;;;;;;;;;5097183;28;20122;-76
2021/09/26 07:21:27;;;;;;;13.32;7.70;;;;;;;;;;5096905;28;20040;-77
2021/09/26 07:23:53;;;;;;;6.80;6.10;;;;;;;;;;5096977;28;20028;-77
2021/09/26 07:26:18;;;;;;;10.07;6.32;;;;;;;;;;5096937;28;20040;-76
2021/09/26 07:28:44;;;;;;;9.10;6.10;;;;;;;;;;5096376;28;20141;-75
2021/09/26 07:31:09;;;;;;;7.80;6.97;;;;;;;;;;5096699;28;20039;-76
2021/09/26 07:33:35;;;;;;;9.93;6.70;;;;;;;;;;5096868;28;20161;-76
2021/09/26 07:36:00;;;;;;;9.07;6.65;;;;;;;;;;5095471;28;20046;-76
2021/09/26 07:38:26;;;;;;;9.45;7.00;;;;;;;;;;5096561;28;20035;-78
2021/09/26 07:40:52;;;;;;;7.30;6.00;;;;;;;;;;5096606;28;20036;-75
2021/09/26 07:43:17;;;;;;;8.45;6.78;;;;;;;;;;5096084;28;20079;-76
2021/09/26 07:45:42;;;;;;;6.57;5.88;;;;;;;;;;5096654;28;20044;-76
2021/09/26 07:48:08;;;;;;;9.10;5.65;;;;;;;;;;5096052;28;20020;-75
2021/09/26 07:50:33;;;;;;;6.28;5.68;;;;;;;;;;5096312;28;20123;-75
2021/09/26 07:52:59;;;;;;;7.95;4.88;;;;;;;;;;5095941;28;20062;-75
2021/09/26 07:55:25;;;;;;;10.35;5.40;;;;;;;;;;5095944;28;20047;-75
2021/09/26 07:57:51;;;;;;;5.65;4.93;;;;;;;;;;5095954;28;20035;-75
2021/09/26 08:00:17;;;;;;;8.38;4.50;;;;;;;;;;5096317;28;20024;-76
2021/09/26 08:02:43;;;;;;;13.77;4.85;;;;;;;;;;5096279;28;20340;-73
2021/09/26 08:05:09;;;;;;;5.80;3.88;;;;;;;;;;5094994;28;20039;-73
2021/09/26 08:07:34;;;;;;;11.02;5.20;;;;;;;;;;5094492;28;20044;-74
2021/09/26 08:10:00;;;;;;;10.15;3.97;;;;;;;;;;5096078;28;20550;-73
2021/09/26 08:12:26;;;;;;;10.43;3.80;;;;;;;;;;5096124;28;20043;-73
2021/09/26 08:14:51;;;;;;;4.68;3.92;;;;;;;;;;5095782;28;20466;-74
2021/09/26 08:17:17;;;;;;;8.65;3.78;;;;;;;;;;5095862;28;20387;-73
2021/09/26 08:19:43;;;;;;;4.70;3.72;;;;;;;;;;5094353;28;20036;-74
2021/09/26 08:22:08;;;;;;;7.20;4.43;;;;;;;;;;5095548;28;20543;-74
2021/09/26 08:24:35;;;;;;;4.60;3.25;;;;;;;;;;5096010;28;20035;-73
2021/09/26 08:27:02;;;;;;;8.75;3.55;;;;;;;;;;5094982;28;20489;-73
2021/09/26 08:29:28;;;;;;;4.97;3.58;;;;;;;;;;5095477;28;20047;-74
2021/09/26 08:31:54;;;;;;;4.20;3.25;;;;;;;;;;5095648;28;20036;-74
2021/09/26 08:34:20;;;;;;;8.63;4.28;;;;;;;;;;5095605;28;20036;-73
2021/09/26 08:36:45;;;;;;;7.43;3.90;;;;;;;;;;5095527;28;20109;-73
2021/09/26 08:39:11;;;;;;;8.73;3.45;;;;;;;;;;5095296;28;20032;-74
2021/09/26 08:41:37;;;;;;;5.68;3.80;;;;;;;;;;5094160;28;20612;-74
2021/09/26 08:44:04;;;;;;;6.25;3.28;;;;;;;;;;5093773;28;20055;-74
2021/09/26 08:46:30;;;;;;;7.78;3.67;;;;;;;;;;5095563;28;20403;-73
2021/09/26 08:48:57;;;;;;;4.90;3.70;;;;;;;;;;5095147;28;20032;-73
2021/09/26 08:51:22;;;;;;;5.75;3.30;;;;;;;;;;5095235;28;20032;-74
2021/09/26 08:53:48;;;;;;;6.43;3.63;;;;;;;;;;5093913;28;20048;-74
2021/09/26 08:56:17;;;;;;;7.15;3.97;;;;;;;;;;5094887;28;20125;-74
2021/09/26 08:58:42;;;;;;;12.02;4.13;;;;;;;;;;5094697;28;20494;-74
2021/09/26 09:01:08;;;;;;;18.33;7.53;;;;;;;;;;5095149;28;20043;-74
2021/09/26 09:03:33;;;;;;;4.88;3.55;;;;;;;;;;5095008;28;20119;-74
2021/09/26 09:05:59;;;;;;;6.82;3.58;;;;;;;;;;5076840;28;20032;-74
2021/09/26 09:08:25;;;;;;;4.40;3.00;;;;;;;;;;5093671;28;20043;-73
2021/09/26 09:10:52;;;;;;;4.00;3.30;;;;;;;;;;5093591;28;20047;-74
2021/09/26 09:13:19;;;;;;;4.20;3.40;;;;;;;;;;5094914;28;20395;-75
2021/09/26 09:16:03;;;;;;;3.45;2.90;;;;;;;;;;5094879;28;20036;-75
2021/09/26 09:18:43;;;;;;;11.07;4.40;;;;;;;;;;5094658;28;20032;-75
2021/09/26 09:21:23;;;;;;;7.25;3.95;;;;;;;;;;5094591;28;20122;-75
2021/09/26 09:23:52;;;;;;;3.88;3.13;;;;;;;;;;5093594;28;20635;-75
2021/09/26 09:26:47;;;;;;;10.02;3.90;;;;;;;;;;5094637;28;20414;-75
2021/09/26 09:29:13;;;;;;;6.82;3.65;;;;;;;;;;5085346;28;20044;-77
2021/09/26 09:31:57;;;;;;;4.10;3.10;;;;;;;;;;5094457;28;20039;-77
2021/09/26 09:34:36;;;;;;;6.05;3.60;;;;;;;;;;5094953;28;20119;-76
2021/09/26 09:37:17;;;;;;;4.38;2.58;;;;;;;;;;5075701;28;20040;-77
2021/09/26 09:40:22;;;;;;;4.90;3.00;;;;;;;;;;5094637;28;20046;-73
2021/09/26 09:42:51;;;;;;;5.57;2.90;;;;;;;;;;5093142;28;20122;-75
2021/09/26 09:45:38;;;;;;;7.07;2.70;;;;;;;;;;5090851;28;20036;-75
2021/09/26 09:48:10;;;;;;;5.80;2.70;;;;;;;;;;5091800;28;20425;-75
2021/09/26 09:50:42;;;;;;;3.90;2.58;;;;;;;;;;5093223;28;20115;-75
2021/09/26 09:53:17;;;;;;;6.32;3.15;;;;;;;;;;5093740;28;20031;-75
2021/09/26 09:55:44;;;;;;;5.00;2.70;;;;;;;;;;5091620;28;20398;-75
2021/09/26 09:58:17;;;;;;;8.85;4.20;;;;;;;;;;5093361;28;20024;-75
2021/09/26 10:00:55;;;;;;;4.03;3.30;;;;;;;;;;5090475;28;20028;-75
2021/09/26 10:03:39;;;;;;;4.55;3.25;;;;;;;;;;5091269;28;20479;-75
2021/09/26 10:06:32;;;;;;;6.38;2.90;;;;;;;;;;5091734;28;20032;-75
2021/09/26 10:09:00;;;;;;;5.63;2.63;;;;;;;;;;5090664;28;20082;-75
2021/09/26 10:11:28;;;;;;;4.55;2.65;;;;;;;;;;5092080;28;20482;-75
2021/09/26 10:13:54;;;;;;;6.93;3.15;;;;;;;;;;5092062;28;20067;-75
2021/09/26 10:16:24;;;;;;;5.05;3.17;;;;;;;;;;5092215;28;20507;-75
2021/09/26 10:18:50;;;;;;;5.45;3.00;;;;;;;;;;5094023;28;20057;-75
2021/09/26 10:21:16;;;;;;;6.22;2.83;;;;;;;;;;5093763;28;20040;-75
2021/09/26 10:23:44;;;;;;;3.95;2.85;;;;;;;;;;5092144;28;20039;-75
2021/09/26 10:26:11;;;;;;;9.98;3.47;;;;;;;;;;5093718;28;20028;-75
2021/09/26 10:28:40;;;;;;;8.68;3.17;;;;;;;;;;5093181;28;20040;-75
2021/09/26 10:31:05;;;;;;;6.60;3.97;;;;;;;;;;5091960;28;20555;-75
2021/09/26 10:33:32;;;;;;;7.25;3.35;;;;;;;;;;5093577;28;20090;-75
2021/09/26 10:35:59;;;;;;;7.00;3.30;;;;;;;;;;5093607;28;20490;-75
2021/09/26 10:38:26;;;;;;;5.45;2.92;;;;;;;;;;5092944;28;20475;-75
2021/09/26 10:40:52;;;;;;;5.55;3.17;;;;;;;;;;5091732;28;20509;-77
2021/09/26 10:43:23;;;;;;;6.50;2.92;;;;;;;;;;5092577;28;20051;-76
2021/09/26 10:45:49;;;;;;;8.70;2.70;;;;;;;;;;5093394;28;20040;-76
2021/09/26 10:48:15;;;;;;;5.90;3.30;;;;;;;;;;5092702;28;20502;-75
2021/09/26 10:50:43;;;;;;;5.93;2.83;;;;;;;;;;5093202;28;20036;-76
2021/09/26 10:53:14;;;;;;;4.07;3.35;;;;;;;;;;5092903;28;20467;-76
2021/09/26 10:55:43;;;;;;;7.00;3.05;;;;;;;;;;5093420;28;20115;-78
2021/09/26 10:58:12;;;;;;;7.38;3.13;;;;;;;;;;5095917;28;20038;-77
2021/09/26 11:00:49;;;;;;;6.25;3.05;;;;;;;;;;5096037;28;20075;-77
2021/09/26 11:03:17;;;;;;;7.45;3.55;;;;;;;;;;5095768;28;20040;-79
2021/09/26 11:05:44;;;;;;;7.57;3.40;;;;;;;;;;5096550;28;20032;-75
2021/09/26 11:08:26;;;;;;;4.35;2.92;;;;;;;;;;5093463;28;20040;-78
2021/09/26 11:10:54;;;;;;;8.15;3.33;;;;;;;;;;5075113;28;20047;-76
2021/09/26 11:13:25;;;;;;;5.68;3.05;;;;;;;;;;5092825;28;20035;-77
2021/09/26 11:16:02;;;;;;;10.13;3.22;;;;;;;;;;5093475;28;20048;-76
2021/09/26 11:18:54;;;;;;;8.77;3.15;;;;;;;;;;5094497;28;20047;-77
2021/09/26 11:21:35;;;;;;;6.80;3.08;;;;;;;;;;5090555;28;20127;-81
2021/09/26 11:24:02;;;;;;;9.45;3.05;;;;;;;;;;5094440;28;20032;-78
2021/09/26 11:26:59;;;;;;;6.15;3.05;;;;;;;;;;5095529;28;20020;-78
2021/09/26 11:29:29;;;;;;;5.72;2.80;;;;;;;;;;5095662;28;20482;-79
2021/09/26 11:31:55;;;;;;;6.72;3.30;;;;;;;;;;5097450;28;20067;-81
2021/09/26 11:34:42;;;;;;;6.50;2.72;;;;;;;;;;5096324;28;20030;-80
2021/09/26 11:37:09;;;;;;;13.63;3.22;;;;;;;;;;5096325;28;20058;-79
2021/09/26 11:39:35;;;;;;;9.20;3.55;;;;;;;;;;5096294;28;20032;-81
2021/09/26 11:42:27;;;;;;;8.43;3.45;;;;;;;;;;5096307;28;20385;-80
2021/09/26 11:44:54;;;;;;;8.98;3.00;;;;;;;;;;5096297;28;20043;-79
2021/09/26 11:47:20;;;;;;;8.93;2.92;;;;;;;;;;5095380;28;20529;-76
2021/09/26 11:49:45;;;;;;;15.57;3.42;;;;;;;;;;5093685;28;20039;-76
2021/09/26 11:52:11;;;;;;;8.30;2.85;;;;;;;;;;5093295;28;20090;-78
2021/09/26 11:54:37;;;;;;;10.77;2.95;;;;;;;;;;5095645;28;20041;-78
2021/09/26 11:57:02;;;;;;;14.48;8.20;;;;;;;;;;5097679;28;20028;-78
2021/09/26 11:59:37;;;;;;;13.30;3.03;;;;;;;;;;5096876;28;20046;-78
2021/09/26 12:02:13;;;;;;;7.00;2.70;;;;;;;;;;5098244;28;20036;-77
2021/09/26 12:04:39;;;;;;;16.55;3.25;;;;;;;;;;5097909;28;20508;-79
2021/09/26 12:07:06;;;;;;;7.88;2.70;;;;;;;;;;5097783;28;20044;-79
2021/09/26 12:09:46;;;;;;;8.98;3.70;;;;;;;;;;5098612;28;20036;-79
2021/09/26 12:12:14;;;;;;;6.63;3.25;;;;;;;;;;5096645;28;20425;-79
2021/09/26 12:14:42;;;;;;;10.10;3.28;;;;;;;;;;5098110;28;20043;-79
2021/09/26 12:17:10;;;;;;;9.15;2.58;;;;;;;;;;5097935;28;20064;-79
2021/09/26 12:19:36;;;;;;;9.70;2.78;;;;;;;;;;5097104;28;20074;-79
2021/09/26 12:22:12;;;;;;;6.88;3.38;;;;;;;;;;5098737;28;20031;-79
2021/09/26 12:24:56;;;;;;;7.47;3.10;;;;;;;;;;5099948;28;20032;-79
2021/09/26 12:27:50;;;;;;;9.02;3.00;;;;;;;;;;5099683;28;20064;-79
2021/09/26 12:30:24;;;;;;;6.95;2.63;;;;;;;;;;5099429;28;20044;-79
2021/09/26 12:32:53;;;;;;;6.82;3.00;;;;;;;;;;5098414;28;20043;-79
2021/09/26 12:35:49;;;;;;;10.88;2.80;;;;;;;;;;5098858;28;20071;-79
2021/09/26 12:38:28;;;;;;;11.27;2.80;;;;;;;;;;5098800;28;20085;-79
2021/09/26 12:41:14;;;;;;;12.48;3.05;;;;;;;;;;5097432;28;20036;-79
2021/09/26 12:43:45;;;;;;;;;;;;;;;;;;5094898;28;20415;-79
2021/09/26 12:46:13;;;;;;;10.90;3.20;;;;;;;;;;5098591;28;19923;-79
2021/09/26 12:48:39;;;;;;;19.63;3.03;;;;;;;;;;5098084;28;20077;-79
2021/09/26 12:51:09;;;;;;;8.60;2.72;;;;;;;;;;5098459;28;20426;-79
2021/09/26 12:53:39;;;;;;;12.55;3.63;;;;;;;;;;5097407;28;20468;-79
2021/09/26 12:56:05;;;;;;;7.80;3.42;;;;;;;;;;5096469;28;20127;-79
2021/09/26 12:58:36;;;;;;;9.63;3.10;;;;;;;;;;5097469;28;20459;-79
2021/09/26 13:01:25;;;;;;;8.40;2.83;;;;;;;;;;5097483;28;20091;-79
2021/09/26 13:03:53;;;;;;;10.68;3.40;;;;;;;;;;5097684;28;20512;-79
2021/09/26 13:06:29;;;;;;;9.93;3.10;;;;;;;;;;5095982;28;20075;-79
2021/09/26 13:08:56;;;;;;;11.73;2.92;;;;;;;;;;5096900;28;20044;-79
2021/09/26 13:11:24;;;;;;;7.50;3.25;;;;;;;;;;5095757;28;20463;-78
2021/09/26 13:14:07;;;;;;;10.88;3.58;;;;;;;;;;5096945;28;20045;-79
2021/09/26 13:16:43;;;;;;;5.85;2.85;;;;;;;;;;5097257;28;20134;-79
2021/09/26 13:19:26;;;;;;;12.38;3.40;;;;;;;;;;5097590;28;20043;-78
2021/09/26 13:22:25;;;;;;;10.30;3.10;;;;;;;;;;5097851;28;20122;-79
2021/09/26 13:24:53;;;;;;;10.15;3.22;;;;;;;;;;5097204;28;20243;-79
2021/09/26 13:27:40;;;;;;;9.45;3.33;;;;;;;;;;5096397;28;20032;-77
2021/09/26 13:30:29;;;;;;;8.60;3.30;;;;;;;;;;5097390;28;20088;-77
2021/09/26 13:33:07;;;;;;;14.45;4.22;;;;;;;;;;5095072;28;20075;-79
2021/09/26 13:35:35;;;;;;;12.77;3.00;;;;;;;;;;5097822;28;20122;-79
2021/09/26 13:38:13;;;;;;;10.88;3.55;;;;;;;;;;5097941;28;20032;-79
2021/09/26 13:40:41;;;;;;;9.52;3.30;;;;;;;;;;5098850;28;20039;-79
2021/09/26 13:43:24;;;;;;;13.48;3.08;;;;;;;;;;5098297;28;20032;-79
2021/09/26 13:45:50;;;;;;;15.27;3.38;;;;;;;;;;5097813;28;20380;-79
2021/09/26 13:48:15;;;;;;;8.57;3.05;;;;;;;;;;5102865;28;20039;-79
2021/09/26 13:50:40;;;;;;;10.43;2.67;;;;;;;;;;5103664;28;20051;-79
2021/09/26 13:53:15;;;;;;;10.23;2.97;;;;;;;;;;5101097;28;20039;-79
2021/09/26 13:55:40;;;;;;;8.00;3.08;;;;;;;;;;5101207;28;20075;-79
2021/09/26 13:58:05;;;;;;;12.55;3.70;;;;;;;;;;5101068;28;20032;-79
2021/09/26 14:00:31;;;;;;;8.23;3.33;;;;;;;;;;5102796;28;20036;-79
2021/09/26 14:02:56;;;;;;;6.65;2.90;;;;;;;;;;5102874;28;20043;-79
2021/09/26 14:05:24;;;;;;;10.30;2.80;;;;;;;;;;5101869;28;20044;-79
2021/09/26 14:07:50;;;;;;;7.18;2.80;;;;;;;;;;5101835;28;20408;-78
2021/09/26 14:10:16;;;;;;;11.75;3.17;;;;;;;;;;5104685;28;20036;-79
2021/09/26 14:12:42;;;;;;;9.88;3.20;;;;;;;;;;5101951;28;20394;-79
2021/09/26 14:15:09;;;;;;;5.28;2.78;;;;;;;;;;5100931;28;20036;-79
2021/09/26 14:17:34;;;;;;;8.90;3.97;;;;;;;;;;5100936;28;20502;-79
2021/09/26 14:20:00;;;;;;;11.27;3.42;;;;;;;;;;5099630;28;20105;-79
2021/09/26 14:22:25;;;;;;;9.95;2.83;;;;;;;;;;5100729;28;20032;-79
2021/09/26 14:24:51;;;;;;;11.05;3.13;;;;;;;;;;5100134;28;20398;-79
2021/09/26 14:27:17;;;;;;;8.82;3.30;;;;;;;;;;5099976;28;20055;-80
2021/09/26 14:29:42;;;;;;;7.43;2.42;;;;;;;;;;5099558;28;20043;-79
2021/09/26 14:32:08;;;;;;;14.75;3.13;;;;;;;;;;5099700;28;20050;-79
2021/09/26 14:34:35;;;;;;;13.45;3.97;;;;;;;;;;5100066;28;20036;-79
2021/09/26 14:37:01;;;;;;;11.05;3.63;;;;;;;;;;5099573;28;20036;-79
2021/09/26 14:39:27;;;;;;;8.13;3.00;;;;;;;;;;5098387;28;20058;-79
2021/09/26 14:41:52;;;;;;;8.05;3.17;;;;;;;;;;5099310;28;20035;-79
2021/09/26 14:44:18;;;;;;;9.27;3.10;;;;;;;;;;5098423;28;20039;-79
2021/09/26 14:46:44;;;;;;;8.90;2.70;;;;;;;;;;5099628;28;20031;-79